Time;durP1;ratioP1;P1;durP2;ratioP2;P2;SDS_P1;SDS_P2;PMS_P1;PMS_P2;Temp;Humidity;BMP_temperature;BMP_pressure;BME280_temperature;BME280_humidity;BME280_pressure;Samples;Min_cycle;Max_cycle;Signal;HPM_P1;HPM_P2
2022/03/25 00:01:32;;;;;;;173.88;44.47;;;;;;;;;;4986878;28;20383;-72
2022/03/25 00:03:57;;;;;;;181.10;46.03;;;;;;;;;;4990419;28;20141;-72
2022/03/25 00:06:23;;;;;;;191.93;48.10;;;;;;;;;;4988252;28;20027;-72
2022/03/25 00:08:48;;;;;;;193.95;50.17;;;;;;;;;;4989383;28;20511;-72
2022/03/25 00:11:13;;;;;;;173.45;45.17;;;;;;;;;;4991595;28;20039;-72
2022/03/25 00:13:38;;;;;;;185.85;47.25;;;;;;;;;;4988974;28;20065;-72
2022/03/25 00:16:04;;;;;;;182.50;46.47;;;;;;;;;;4984553;28;20272;-72
2022/03/25 00:18:29;;;;;;;183.60;47.30;;;;;;;;;;4991993;28;20077;-72
2022/03/25 00:20:55;;;;;;;177.73;48.80;;;;;;;;;;4989531;28;20034;-72
2022/03/25 00:23:20;;;;;;;194.90;50.28;;;;;;;;;;4987785;28;20292;-72
2022/03/25 00:25:45;;;;;;;178.80;47.63;;;;;;;;;;4982873;28;20027;-71
2022/03/25 00:28:11;;;;;;;184.10;44.10;;;;;;;;;;4988795;28;20252;-72
2022/03/25 00:30:36;;;;;;;162.85;44.53;;;;;;;;;;4982527;28;20031;-72
2022/03/25 00:33:01;;;;;;;182.70;44.70;;;;;;;;;;4981550;28;20403;-72
2022/03/25 00:35:26;;;;;;;179.73;45.00;;;;;;;;;;4991335;28;20374;-71
2022/03/25 00:37:52;;;;;;;191.63;47.95;;;;;;;;;;4987263;28;20795;-72
2022/03/25 00:40:17;;;;;;;175.50;45.70;;;;;;;;;;4985515;28;20157;-72
2022/03/25 00:42:42;;;;;;;197.38;46.95;;;;;;;;;;4988520;28;20491;-72
2022/03/25 00:45:08;;;;;;;170.25;43.10;;;;;;;;;;4983247;28;20117;-72
2022/03/25 00:47:34;;;;;;;155.20;40.47;;;;;;;;;;4987861;28;20088;-72
2022/03/25 00:49:59;;;;;;;173.85;43.40;;;;;;;;;;4988126;28;20428;-71
2022/03/25 00:52:24;;;;;;;166.70;41.80;;;;;;;;;;4987512;28;20389;-71
2022/03/25 00:54:50;;;;;;;172.95;43.38;;;;;;;;;;4985903;28;20526;-72
2022/03/25 00:57:16;;;;;;;172.90;46.70;;;;;;;;;;4989544;28;20026;-72
2022/03/25 00:59:41;;;;;;;191.85;46.65;;;;;;;;;;4991256;28;20029;-71
2022/03/25 01:02:07;;;;;;;165.23;40.17;;;;;;;;;;4988065;28;20108;-73
2022/03/25 01:04:32;;;;;;;166.60;40.80;;;;;;;;;;4984580;28;20294;-72
2022/03/25 01:06:58;;;;;;;167.65;42.13;;;;;;;;;;4980445;28;20038;-72
2022/03/25 01:09:23;;;;;;;153.15;41.63;;;;;;;;;;4983020;28;20034;-72
2022/03/25 01:11:49;;;;;;;186.45;42.58;;;;;;;;;;4985898;28;20168;-72
2022/03/25 01:14:14;;;;;;;167.20;41.70;;;;;;;;;;4986521;28;20041;-72
2022/03/25 01:16:39;;;;;;;144.73;41.22;;;;;;;;;;4980627;28;20022;-72
2022/03/25 01:19:05;;;;;;;160.67;42.30;;;;;;;;;;4982491;28;20330;-72
2022/03/25 01:21:30;;;;;;;161.68;40.58;;;;;;;;;;4987642;28;20268;-71
2022/03/25 01:23:56;;;;;;;148.90;38.57;;;;;;;;;;4983374;28;20033;-72
2022/03/25 01:26:21;;;;;;;152.32;40.15;;;;;;;;;;4987670;28;20285;-72
2022/03/25 01:28:47;;;;;;;175.87;42.03;;;;;;;;;;4985878;28;20018;-72
2022/03/25 01:31:13;;;;;;;147.23;41.50;;;;;;;;;;4990480;28;20718;-72
2022/03/25 01:33:38;;;;;;;169.40;42.60;;;;;;;;;;4984559;28;20505;-71
2022/03/25 01:36:04;;;;;;;155.55;42.47;;;;;;;;;;4983073;28;20034;-72
2022/03/25 01:38:29;;;;;;;153.15;36.80;;;;;;;;;;4982638;28;20038;-71
2022/03/25 01:40:54;;;;;;;150.50;39.72;;;;;;;;;;4984910;28;20036;-72
2022/03/25 01:43:20;;;;;;;149.90;38.58;;;;;;;;;;4989475;28;20026;-72
2022/03/25 01:45:45;;;;;;;151.43;39.83;;;;;;;;;;4982822;28;20027;-72
2022/03/25 01:48:11;;;;;;;135.93;34.93;;;;;;;;;;4985667;28;20023;-71
2022/03/25 01:50:37;;;;;;;137.95;36.08;;;;;;;;;;4986952;28;20268;-72
2022/03/25 01:53:03;;;;;;;158.77;37.33;;;;;;;;;;4986233;28;20042;-71
2022/03/25 01:55:36;;;;;;;140.45;38.47;;;;;;;;;;4983290;28;20030;-72
2022/03/25 01:58:01;;;;;;;134.82;35.08;;;;;;;;;;4987166;28;20476;-71
2022/03/25 02:00:29;;;;;;;149.10;36.75;;;;;;;;;;4988176;28;20043;-72
2022/03/25 02:02:54;;;;;;;145.98;38.97;;;;;;;;;;4989066;28;20315;-71
2022/03/25 02:05:20;;;;;;;147.23;38.92;;;;;;;;;;4988810;28;20177;-71
2022/03/25 02:07:45;;;;;;;135.73;35.53;;;;;;;;;;4986144;28;20207;-72
2022/03/25 02:10:10;;;;;;;132.98;36.70;;;;;;;;;;4983621;28;20606;-71
2022/03/25 02:12:36;;;;;;;149.20;35.80;;;;;;;;;;4988144;28;20032;-72
2022/03/25 02:15:01;;;;;;;137.55;34.65;;;;;;;;;;4984934;28;20475;-71
2022/03/25 02:17:26;;;;;;;143.13;39.38;;;;;;;;;;4982674;28;20079;-72
2022/03/25 02:19:52;;;;;;;129.33;33.03;;;;;;;;;;4997684;28;20283;-71
2022/03/25 02:22:17;;;;;;;135.67;32.37;;;;;;;;;;4982453;28;20330;-71
2022/03/25 02:24:43;;;;;;;133.48;31.85;;;;;;;;;;4976783;28;20265;-71
2022/03/25 02:27:09;;;;;;;124.30;33.50;;;;;;;;;;4988161;28;20034;-72
2022/03/25 02:29:34;;;;;;;138.80;33.80;;;;;;;;;;4988640;28;20278;-71
2022/03/25 02:31:59;;;;;;;124.53;33.17;;;;;;;;;;4980136;28;20026;-72
2022/03/25 02:34:24;;;;;;;123.82;34.53;;;;;;;;;;4996574;28;20169;-72
2022/03/25 02:36:50;;;;;;;135.05;34.08;;;;;;;;;;4981101;28;20283;-72
2022/03/25 02:39:16;;;;;;;121.90;32.13;;;;;;;;;;4983172;28;20057;-71
2022/03/25 02:41:41;;;;;;;120.57;34.28;;;;;;;;;;4988627;28;20268;-72
2022/03/25 02:44:06;;;;;;;133.50;34.85;;;;;;;;;;4988810;28;20026;-72
2022/03/25 02:46:32;;;;;;;123.15;31.75;;;;;;;;;;4977278;28;20034;-71
2022/03/25 02:48:57;;;;;;;122.75;32.53;;;;;;;;;;4982400;28;20129;-72
2022/03/25 02:51:22;;;;;;;135.43;32.90;;;;;;;;;;4991272;28;20069;-71
2022/03/25 02:53:48;;;;;;;124.05;33.28;;;;;;;;;;4976293;28;20539;-72
2022/03/25 02:56:13;;;;;;;133.82;34.42;;;;;;;;;;4971903;28;20030;-72
2022/03/25 02:58:38;;;;;;;109.95;31.25;;;;;;;;;;5002028;28;20023;-71
2022/03/25 03:01:04;;;;;;;132.75;34.83;;;;;;;;;;4982435;28;20741;-72
2022/03/25 03:03:29;;;;;;;134.05;35.15;;;;;;;;;;4981192;28;20034;-71
2022/03/25 03:05:55;;;;;;;137.75;33.63;;;;;;;;;;4971783;28;20046;-71
2022/03/25 03:08:20;;;;;;;126.07;33.42;;;;;;;;;;4981841;28;20114;-72
2022/03/25 03:10:45;;;;;;;123.97;34.70;;;;;;;;;;4980161;28;20019;-72
2022/03/25 03:13:10;;;;;;;135.77;34.35;;;;;;;;;;4999762;28;20288;-71
2022/03/25 03:15:36;;;;;;;136.77;35.28;;;;;;;;;;4976888;28;20511;-71
2022/03/25 03:18:01;;;;;;;135.27;34.75;;;;;;;;;;4989465;28;20037;-72
2022/03/25 03:20:26;;;;;;;132.02;33.88;;;;;;;;;;4983807;28;20030;-71
2022/03/25 03:22:52;;;;;;;129.35;34.80;;;;;;;;;;4983582;28;20029;-71
2022/03/25 03:25:17;;;;;;;133.10;35.45;;;;;;;;;;4985832;28;20061;-72
2022/03/25 03:27:42;;;;;;;121.75;33.05;;;;;;;;;;4972006;28;20465;-72
2022/03/25 03:30:09;;;;;;;141.45;33.63;;;;;;;;;;4977562;28;20404;-72
2022/03/25 03:32:34;;;;;;;127.07;33.95;;;;;;;;;;4975293;28;20023;-72
2022/03/25 03:35:00;;;;;;;117.10;32.28;;;;;;;;;;4977099;28;20073;-71
2022/03/25 03:37:25;;;;;;;132.02;32.58;;;;;;;;;;4983157;28;20030;-72
2022/03/25 03:39:50;;;;;;;119.60;33.00;;;;;;;;;;4980640;28;20058;-72
2022/03/25 03:42:15;;;;;;;124.83;34.13;;;;;;;;;;4982363;28;20058;-71
2022/03/25 03:44:40;;;;;;;135.98;33.55;;;;;;;;;;4980064;28;20327;-71
2022/03/25 03:47:06;;;;;;;123.75;35.85;;;;;;;;;;4997939;28;20113;-72
2022/03/25 03:49:32;;;;;;;132.52;34.65;;;;;;;;;;4982797;28;20026;-72
2022/03/25 03:51:57;;;;;;;137.15;36.67;;;;;;;;;;4983094;28;20022;-72
2022/03/25 03:54:23;;;;;;;140.85;35.50;;;;;;;;;;4977805;28;20062;-71
2022/03/25 03:56:48;;;;;;;141.05;35.45;;;;;;;;;;4980928;28;20473;-72
2022/03/25 03:59:13;;;;;;;132.68;36.28;;;;;;;;;;4979251;28;20118;-71
2022/03/25 04:01:38;;;;;;;128.48;32.78;;;;;;;;;;4981364;28;20108;-72
2022/03/25 04:04:03;;;;;;;136.65;34.17;;;;;;;;;;4983391;28;20119;-72
2022/03/25 04:06:29;;;;;;;129.07;33.93;;;;;;;;;;4983556;28;20286;-72
2022/03/25 04:08:54;;;;;;;133.90;35.58;;;;;;;;;;4984080;28;20260;-72
2022/03/25 04:11:19;;;;;;;123.40;34.60;;;;;;;;;;4978041;28;20029;-72
2022/03/25 04:13:45;;;;;;;136.30;36.75;;;;;;;;;;4984260;28;20037;-72
2022/03/25 04:16:10;;;;;;;127.20;32.13;;;;;;;;;;4981428;28;20168;-71
2022/03/25 04:18:36;;;;;;;137.23;35.17;;;;;;;;;;4985920;28;20069;-71
2022/03/25 04:21:01;;;;;;;131.55;35.70;;;;;;;;;;4984541;28;20031;-71
2022/03/25 04:23:26;;;;;;;141.52;35.78;;;;;;;;;;4984387;28;20053;-72
2022/03/25 04:25:51;;;;;;;149.07;35.40;;;;;;;;;;4983883;28;20360;-72
2022/03/25 04:28:17;;;;;;;135.85;35.53;;;;;;;;;;4980136;28;20264;-72
2022/03/25 04:30:42;;;;;;;132.98;33.17;;;;;;;;;;4979336;28;20033;-72
2022/03/25 04:33:08;;;;;;;135.65;36.38;;;;;;;;;;4978812;28;20030;-71
2022/03/25 04:35:33;;;;;;;134.35;37.15;;;;;;;;;;4981643;28;20022;-72
2022/03/25 04:37:59;;;;;;;144.80;39.08;;;;;;;;;;4979575;28;20432;-71
2022/03/25 04:40:25;;;;;;;148.40;38.67;;;;;;;;;;4982750;28;20042;-71
2022/03/25 04:42:51;;;;;;;148.18;37.50;;;;;;;;;;4982971;28;20041;-72
2022/03/25 04:45:16;;;;;;;140.63;36.20;;;;;;;;;;4987389;28;20038;-72
2022/03/25 04:47:42;;;;;;;136.40;37.92;;;;;;;;;;4990519;28;20018;-72
2022/03/25 04:50:07;;;;;;;113.63;30.38;;;;;;;;;;4990542;28;20627;-71
2022/03/25 04:52:32;;;;;;;104.10;29.63;;;;;;;;;;4981768;28;20058;-71
2022/03/25 04:54:58;;;;;;;109.07;27.83;;;;;;;;;;4981526;28;20038;-71
2022/03/25 04:57:23;;;;;;;132.15;32.75;;;;;;;;;;4989061;28;20716;-72
2022/03/25 04:59:49;;;;;;;146.52;37.42;;;;;;;;;;4989744;28;20071;-71
2022/03/25 05:02:14;;;;;;;139.40;36.00;;;;;;;;;;4996810;28;20018;-72
2022/03/25 05:04:39;;;;;;;165.55;39.75;;;;;;;;;;4995630;28;20030;-72
2022/03/25 05:07:05;;;;;;;146.52;37.08;;;;;;;;;;4991501;28;20330;-72
2022/03/25 05:09:30;;;;;;;155.00;38.97;;;;;;;;;;4979941;28;20307;-72
2022/03/25 05:11:55;;;;;;;151.73;41.17;;;;;;;;;;4983763;28;20022;-72
2022/03/25 05:14:20;;;;;;;142.77;36.47;;;;;;;;;;4984025;28;20018;-72
2022/03/25 05:16:52;;;;;;;146.35;39.13;;;;;;;;;;4977600;28;20058;-71
2022/03/25 05:19:17;;;;;;;153.02;37.70;;;;;;;;;;4994512;28;20026;-72
2022/03/25 05:21:42;;;;;;;144.55;36.75;;;;;;;;;;4981837;28;20069;-72
2022/03/25 05:24:08;;;;;;;144.77;36.53;;;;;;;;;;4980391;28;20514;-72
2022/03/25 05:26:33;;;;;;;155.32;39.10;;;;;;;;;;4985608;28;20263;-72
2022/03/25 05:28:58;;;;;;;161.43;37.63;;;;;;;;;;4986526;28;20263;-72
2022/03/25 05:31:23;;;;;;;143.43;39.87;;;;;;;;;;4983307;28;20650;-72
2022/03/25 05:33:48;;;;;;;151.98;37.22;;;;;;;;;;4983501;28;20297;-72
2022/03/25 05:36:13;;;;;;;154.40;38.80;;;;;;;;;;4983458;28;20276;-72
2022/03/25 05:38:39;;;;;;;142.10;36.45;;;;;;;;;;4987002;28;20113;-72
2022/03/25 05:41:04;;;;;;;159.23;39.05;;;;;;;;;;4984071;28;20740;-72
2022/03/25 05:43:29;;;;;;;144.73;36.72;;;;;;;;;;4977766;28;20558;-72
2022/03/25 05:45:55;;;;;;;156.00;38.45;;;;;;;;;;4995752;28;20022;-72
2022/03/25 05:48:21;;;;;;;166.43;37.03;;;;;;;;;;4986508;28;20463;-72
2022/03/25 05:50:46;;;;;;;135.30;36.03;;;;;;;;;;4981899;28;20032;-72
2022/03/25 05:53:11;;;;;;;150.50;37.50;;;;;;;;;;4984676;28;20022;-71
2022/03/25 05:55:36;;;;;;;142.52;36.20;;;;;;;;;;4983452;28;20259;-72
2022/03/25 05:58:01;;;;;;;133.82;34.03;;;;;;;;;;4992946;28;20649;-72
2022/03/25 06:00:26;;;;;;;144.98;39.10;;;;;;;;;;4980976;28;20030;-72
2022/03/25 06:02:52;;;;;;;143.32;37.22;;;;;;;;;;4988670;28;20034;-72
2022/03/25 06:05:18;;;;;;;162.73;42.07;;;;;;;;;;4981027;28;20026;-72
2022/03/25 06:07:43;;;;;;;166.77;41.55;;;;;;;;;;4990565;28;20271;-71
2022/03/25 06:10:11;;;;;;;153.70;38.75;;;;;;;;;;4985411;28;20022;-72
2022/03/25 06:12:36;;;;;;;159.10;37.95;;;;;;;;;;4988234;28;20481;-72
2022/03/25 06:15:02;;;;;;;158.57;39.92;;;;;;;;;;4986186;28;20030;-71
2022/03/25 06:17:28;;;;;;;154.85;41.13;;;;;;;;;;4985661;28;20050;-72
2022/03/25 06:19:53;;;;;;;162.98;40.75;;;;;;;;;;4978945;28;20455;-72
2022/03/25 06:22:18;;;;;;;172.15;42.80;;;;;;;;;;4981027;28;20180;-72
2022/03/25 06:24:43;;;;;;;170.07;43.22;;;;;;;;;;4979088;28;20502;-72
2022/03/25 06:27:10;;;;;;;161.13;41.92;;;;;;;;;;4978936;28;20097;-72
2022/03/25 06:29:35;;;;;;;189.73;47.00;;;;;;;;;;4977199;28;20026;-72
2022/03/25 06:32:00;;;;;;;188.32;46.53;;;;;;;;;;4976447;28;20037;-72
2022/03/25 06:34:26;;;;;;;182.80;43.58;;;;;;;;;;4980711;28;20600;-72
2022/03/25 06:36:51;;;;;;;182.50;46.40;;;;;;;;;;4991543;28;20372;-72
2022/03/25 06:39:16;;;;;;;176.27;46.92;;;;;;;;;;4996568;28;20077;-71
2022/03/25 06:41:42;;;;;;;188.18;48.67;;;;;;;;;;4980310;28;20260;-73
2022/03/25 06:44:07;;;;;;;185.18;47.25;;;;;;;;;;4985940;28;20117;-73
2022/03/25 06:46:32;;;;;;;192.10;48.63;;;;;;;;;;4988533;28;20027;-76
2022/03/25 06:48:58;;;;;;;187.23;47.80;;;;;;;;;;4981161;28;20701;-71
2022/03/25 06:51:23;;;;;;;181.27;47.45;;;;;;;;;;4978593;28;20022;-74
2022/03/25 06:53:48;;;;;;;201.73;51.80;;;;;;;;;;4980792;28;20026;-72
2022/03/25 06:56:14;;;;;;;201.10;51.28;;;;;;;;;;4984595;28;20034;-69
2022/03/25 06:58:39;;;;;;;197.45;51.25;;;;;;;;;;4982455;28;20019;-74
2022/03/25 07:01:05;;;;;;;200.80;51.85;;;;;;;;;;4982587;28;20398;-70
2022/03/25 07:03:31;;;;;;;204.07;52.17;;;;;;;;;;4984546;28;20030;-76
2022/03/25 07:05:56;;;;;;;209.07;54.30;;;;;;;;;;4981188;28;20095;-71
2022/03/25 07:08:22;;;;;;;211.95;52.92;;;;;;;;;;4980826;28;20113;-70
2022/03/25 07:10:47;;;;;;;225.93;57.25;;;;;;;;;;4980206;28;20088;-70
2022/03/25 07:13:12;;;;;;;200.25;55.38;;;;;;;;;;4981425;28;20034;-69
2022/03/25 07:15:37;;;;;;;233.20;59.20;;;;;;;;;;4978865;28;20032;-70
2022/03/25 07:18:03;;;;;;;225.65;55.83;;;;;;;;;;4980539;28;20391;-70
2022/03/25 07:20:28;;;;;;;224.13;60.25;;;;;;;;;;4983145;28;20110;-70
2022/03/25 07:22:53;;;;;;;236.37;61.77;;;;;;;;;;4982418;28;20026;-69
2022/03/25 07:25:18;;;;;;;250.23;63.30;;;;;;;;;;4979597;28;20264;-70
2022/03/25 07:27:44;;;;;;;257.50;65.85;;;;;;;;;;4988376;28;20826;-69
2022/03/25 07:30:11;;;;;;;276.80;71.30;;;;;;;;;;4980839;28;20076;-70
2022/03/25 07:32:36;;;;;;;262.98;65.47;;;;;;;;;;4994737;28;20030;-69
2022/03/25 07:35:01;;;;;;;271.42;70.10;;;;;;;;;;4987890;28;20869;-69
2022/03/25 07:37:27;;;;;;;268.98;70.05;;;;;;;;;;4984247;28;20124;-68
2022/03/25 07:39:53;;;;;;;296.70;72.18;;;;;;;;;;4984827;28;20105;-69
2022/03/25 07:42:18;;;;;;;287.60;77.30;;;;;;;;;;4986100;28;20117;-69
2022/03/25 07:44:44;;;;;;;270.77;66.80;;;;;;;;;;4982798;28;20031;-69
2022/03/25 07:47:11;;;;;;;285.45;73.90;;;;;;;;;;4986360;28;20251;-69
2022/03/25 07:49:38;;;;;;;289.23;72.20;;;;;;;;;;4989079;28;20018;-69
2022/03/25 07:52:04;;;;;;;281.20;72.03;;;;;;;;;;4985898;28;20073;-69
2022/03/25 07:54:29;;;;;;;291.08;70.47;;;;;;;;;;4986701;28;20038;-69
2022/03/25 07:56:57;;;;;;;289.25;73.80;;;;;;;;;;4979592;28;20044;-69
2022/03/25 07:59:23;;;;;;;293.60;77.55;;;;;;;;;;4985405;28;20057;-69
2022/03/25 08:01:48;;;;;;;292.45;76.53;;;;;;;;;;4982904;28;20030;-69
2022/03/25 08:04:14;;;;;;;277.02;77.03;;;;;;;;;;4987745;28;20026;-70
2022/03/25 08:06:40;;;;;;;298.25;79.38;;;;;;;;;;4983535;28;20528;-69
2022/03/25 08:09:05;;;;;;;282.23;75.35;;;;;;;;;;4984029;28;20026;-70
2022/03/25 08:11:30;;;;;;;285.60;76.93;;;;;;;;;;4985919;28;20483;-70
2022/03/25 08:13:56;;;;;;;286.75;73.00;;;;;;;;;;4984571;28;20027;-69
2022/03/25 08:16:21;;;;;;;283.88;76.07;;;;;;;;;;4979872;28;20041;-70
2022/03/25 08:18:46;;;;;;;290.00;72.47;;;;;;;;;;4979840;28;20102;-70
2022/03/25 08:21:11;;;;;;;303.13;74.37;;;;;;;;;;4983111;28;20029;-69
2022/03/25 08:29:04;;;;;;;271.45;76.75;;;;;;;;;;4983658;28;20097;-69
2022/03/25 08:31:29;;;;;;;288.07;74.93;;;;;;;;;;4981246;28;20042;-71
2022/03/25 08:33:55;;;;;;;261.17;70.75;;;;;;;;;;4996744;28;20073;-69
2022/03/25 08:36:20;;;;;;;270.48;71.30;;;;;;;;;;4985400;28;20028;-69
2022/03/25 08:38:46;;;;;;;283.77;74.85;;;;;;;;;;4986866;28;20100;-70
2022/03/25 08:41:12;;;;;;;254.45;64.15;;;;;;;;;;4987599;28;20023;-69
2022/03/25 08:43:38;;;;;;;246.15;64.88;;;;;;;;;;4990270;28;20365;-70
2022/03/25 08:46:03;;;;;;;245.05;63.53;;;;;;;;;;4990383;28;20026;-70
2022/03/25 08:48:29;;;;;;;259.00;68.40;;;;;;;;;;4996389;28;20030;-69
2022/03/25 08:50:54;;;;;;;243.77;64.13;;;;;;;;;;4994607;28;20062;-70
2022/03/25 08:53:20;;;;;;;249.90;69.07;;;;;;;;;;4987268;28;20076;-70
2022/03/25 08:55:45;;;;;;;252.55;69.30;;;;;;;;;;4989360;28;20446;-69
2022/03/25 08:58:11;;;;;;;259.35;68.68;;;;;;;;;;4989517;28;20030;-69
2022/03/25 09:00:37;;;;;;;239.50;64.35;;;;;;;;;;4989273;28;20069;-69
2022/03/25 09:03:02;;;;;;;238.98;65.57;;;;;;;;;;4991122;28;20067;-70
2022/03/25 09:05:27;;;;;;;233.40;66.55;;;;;;;;;;4994951;28;20030;-70
2022/03/25 09:07:53;;;;;;;231.50;59.95;;;;;;;;;;4986094;28;20026;-70
2022/03/25 09:10:18;;;;;;;236.00;64.05;;;;;;;;;;4996666;28;20073;-70
2022/03/25 09:12:44;;;;;;;223.70;62.80;;;;;;;;;;4986063;28;20086;-69
2022/03/25 09:15:10;;;;;;;223.13;60.10;;;;;;;;;;4987018;28;20388;-69
2022/03/25 09:17:35;;;;;;;233.25;70.07;;;;;;;;;;4987341;28;20047;-70
2022/03/25 09:20:03;;;;;;;236.83;62.70;;;;;;;;;;4988742;28;20173;-70
2022/03/25 09:22:28;;;;;;;215.93;60.65;;;;;;;;;;4982389;28;20346;-70
2022/03/25 09:24:53;;;;;;;204.03;58.40;;;;;;;;;;4987252;28;20034;-69
2022/03/25 09:27:19;;;;;;;210.75;62.15;;;;;;;;;;4991381;28;20267;-69
2022/03/25 09:29:45;;;;;;;217.15;58.22;;;;;;;;;;4993405;28;20558;-70
2022/03/25 09:32:10;;;;;;;212.57;59.35;;;;;;;;;;4988806;28;20100;-69
2022/03/25 09:37:21;;;;;;;204.05;59.15;;;;;;;;;;4986856;28;20898;-69
2022/03/25 09:39:46;;;;;;;222.63;60.58;;;;;;;;;;4985207;28;20034;-71
2022/03/25 09:42:12;;;;;;;220.88;59.47;;;;;;;;;;4986208;28;20031;-70
2022/03/25 09:44:40;;;;;;;208.38;57.30;;;;;;;;;;4987306;28;20036;-70
2022/03/25 09:47:05;;;;;;;227.20;67.13;;;;;;;;;;4989892;28;20014;-71
2022/03/25 09:49:30;;;;;;;196.82;55.17;;;;;;;;;;4987958;28;20048;-69
2022/03/25 09:51:55;;;;;;;207.53;57.33;;;;;;;;;;4981995;28;20396;-70
2022/03/25 09:54:21;;;;;;;190.73;53.27;;;;;;;;;;4982856;28;20426;-70
2022/03/25 09:56:47;;;;;;;195.25;53.53;;;;;;;;;;4990459;28;20351;-69
2022/03/25 09:59:17;;;;;;;192.45;54.03;;;;;;;;;;4989084;28;20031;-68
2022/03/25 10:01:42;;;;;;;203.93;58.50;;;;;;;;;;4989115;28;20061;-69
2022/03/25 10:04:08;;;;;;;185.50;53.28;;;;;;;;;;4989326;28;20272;-69
2022/03/25 10:06:44;;;;;;;186.15;56.45;;;;;;;;;;4982787;28;20033;-71
2022/03/25 10:09:09;;;;;;;217.50;59.83;;;;;;;;;;4984618;28;20041;-70
2022/03/25 10:11:35;;;;;;;204.75;55.90;;;;;;;;;;4989186;28;20018;-69
2022/03/25 10:14:15;;;;;;;201.38;59.97;;;;;;;;;;4983083;28;20066;-69
2022/03/25 10:16:42;;;;;;;217.98;62.58;;;;;;;;;;4979187;28;20066;-69
2022/03/25 10:19:09;;;;;;;226.50;66.03;;;;;;;;;;4984296;28;20022;-71
2022/03/25 10:21:51;;;;;;;207.77;61.67;;;;;;;;;;4977714;28;20471;-70
2022/03/25 10:24:18;;;;;;;226.02;69.38;;;;;;;;;;4979460;28;20033;-70
2022/03/25 10:26:43;;;;;;;227.45;63.90;;;;;;;;;;4985892;28;20529;-70
2022/03/25 10:29:22;;;;;;;203.85;58.85;;;;;;;;;;4994269;28;20104;-69
2022/03/25 10:32:18;;;;;;;225.82;64.60;;;;;;;;;;4985376;28;20357;-69
2022/03/25 10:34:43;;;;;;;228.23;61.78;;;;;;;;;;4974223;28;20062;-70
2022/03/25 10:37:12;;;;;;;216.10;61.55;;;;;;;;;;4982848;28;20129;-69
2022/03/25 10:39:38;;;;;;;227.38;64.97;;;;;;;;;;5000108;28;20081;-70
2022/03/25 10:42:04;;;;;;;231.23;65.88;;;;;;;;;;4982810;28;20546;-69
2022/03/25 10:44:34;;;;;;;222.98;66.57;;;;;;;;;;4979831;28;20049;-70
2022/03/25 10:47:00;;;;;;;223.02;67.20;;;;;;;;;;4981676;28;20415;-70
2022/03/25 10:49:36;;;;;;;219.68;67.85;;;;;;;;;;4980366;28;20084;-69
2022/03/25 10:52:01;;;;;;;222.18;65.55;;;;;;;;;;4985873;28;20468;-70
2022/03/25 10:54:27;;;;;;;217.63;63.65;;;;;;;;;;4986344;28;20067;-69
2022/03/25 10:56:54;;;;;;;220.15;68.90;;;;;;;;;;4979236;28;20041;-69
2022/03/25 10:59:20;;;;;;;234.77;69.90;;;;;;;;;;4989428;28;20026;-70
2022/03/25 11:01:46;;;;;;;223.82;65.68;;;;;;;;;;4978464;28;20030;-70
2022/03/25 11:04:11;;;;;;;218.35;69.53;;;;;;;;;;4982921;28;20031;-69
2022/03/25 11:06:39;;;;;;;221.85;72.95;;;;;;;;;;4977921;28;20031;-69
2022/03/25 11:09:05;;;;;;;220.98;70.32;;;;;;;;;;4974946;28;20020;-70
2022/03/25 11:11:30;;;;;;;214.80;69.10;;;;;;;;;;4978663;28;20018;-70
2022/03/25 11:13:55;;;;;;;210.95;64.50;;;;;;;;;;4977065;28;20486;-69
2022/03/25 11:16:21;;;;;;;228.53;69.53;;;;;;;;;;4974165;28;20037;-68
2022/03/25 11:18:48;;;;;;;228.07;64.68;;;;;;;;;;4977685;28;20070;-69
2022/03/25 11:21:14;;;;;;;222.95;67.40;;;;;;;;;;4980446;28;20073;-70
2022/03/25 11:23:42;;;;;;;215.43;67.57;;;;;;;;;;4987501;28;20033;-70
2022/03/25 11:26:09;;;;;;;230.82;73.80;;;;;;;;;;4987030;28;20448;-70
2022/03/25 11:28:35;;;;;;;232.93;72.75;;;;;;;;;;4993200;28;20026;-70
2022/03/25 11:31:05;;;;;;;231.10;72.47;;;;;;;;;;4987984;28;20113;-69
2022/03/25 11:33:30;;;;;;;217.05;69.82;;;;;;;;;;4984734;28;20073;-71
2022/03/25 11:36:13;;;;;;;223.25;71.05;;;;;;;;;;4984511;28;20030;-69
2022/03/25 11:38:38;;;;;;;206.82;68.45;;;;;;;;;;4983056;28;20030;-70
2022/03/25 11:41:23;;;;;;;209.43;68.35;;;;;;;;;;4982660;28;20038;-72
2022/03/25 11:44:07;;;;;;;227.80;71.28;;;;;;;;;;4978116;28;20029;-72
2022/03/25 11:46:32;;;;;;;226.07;76.25;;;;;;;;;;4982302;28;20486;-70
2022/03/25 11:49:16;;;;;;;218.60;69.93;;;;;;;;;;4985726;28;20027;-70
2022/03/25 11:51:41;;;;;;;;;;;;;;;;;;4989445;28;20264;-71
2022/03/25 11:54:25;;;;;;;240.93;75.88;;;;;;;;;;4991647;28;19910;-70
2022/03/25 11:56:50;;;;;;;228.32;70.07;;;;;;;;;;4992805;28;20041;-72
2022/03/25 11:59:16;;;;;;;212.65;67.28;;;;;;;;;;5000208;28;20065;-71
2022/03/25 12:01:41;;;;;;;224.10;71.53;;;;;;;;;;4996538;28;20791;-71
2022/03/25 12:04:08;;;;;;;220.87;72.80;;;;;;;;;;4990073;28;20810;-70
2022/03/25 12:06:52;;;;;;;227.10;75.07;;;;;;;;;;4977586;28;20923;-70
2022/03/25 12:09:20;;;;;;;239.40;76.20;;;;;;;;;;4993935;28;20105;-72
2022/03/25 12:11:58;;;;;;;208.05;73.63;;;;;;;;;;4995758;28;20118;-71
2022/03/25 12:14:33;;;;;;;223.10;72.82;;;;;;;;;;4990868;28;20199;-70
2022/03/25 12:16:59;;;;;;;244.95;77.78;;;;;;;;;;4985560;28;20026;-72
2022/03/25 12:19:31;;;;;;;241.88;78.55;;;;;;;;;;4982836;28;20065;-72
2022/03/25 12:21:57;;;;;;;239.48;77.93;;;;;;;;;;4990326;28;20033;-71
2022/03/25 12:24:22;;;;;;;235.88;78.30;;;;;;;;;;4999503;28;20033;-73
2022/03/25 12:26:54;;;;;;;225.32;76.50;;;;;;;;;;4991866;28;20093;-72
2022/03/25 12:29:27;;;;;;;226.95;76.28;;;;;;;;;;4997262;28;20023;-73
2022/03/25 12:31:52;;;;;;;225.27;73.50;;;;;;;;;;4988670;28;20045;-73
2022/03/25 12:34:17;;;;;;;217.45;74.22;;;;;;;;;;4994321;28;20026;-72
2022/03/25 12:36:48;;;;;;;245.85;81.85;;;;;;;;;;5000298;28;20113;-73
2022/03/25 12:39:14;;;;;;;210.27;68.72;;;;;;;;;;4992305;28;20041;-74
2022/03/25 12:41:44;;;;;;;221.55;77.95;;;;;;;;;;4991925;28;20030;-73
2022/03/25 12:44:09;;;;;;;240.85;79.65;;;;;;;;;;4991648;28;20534;-72
2022/03/25 12:46:34;;;;;;;225.20;75.37;;;;;;;;;;5001599;28;20026;-73
2022/03/25 12:49:03;;;;;;;217.33;73.83;;;;;;;;;;4992227;28;20036;-72
2022/03/25 12:51:29;;;;;;;215.20;71.15;;;;;;;;;;4994150;28;20034;-72
2022/03/25 12:53:54;;;;;;;203.50;69.30;;;;;;;;;;4991287;28;20484;-73
2022/03/25 12:56:20;;;;;;;232.00;76.50;;;;;;;;;;4988637;28;20030;-72
2022/03/25 12:58:45;;;;;;;211.15;73.95;;;;;;;;;;4995127;28;20100;-73
2022/03/25 13:01:14;;;;;;;206.67;70.60;;;;;;;;;;4996160;28;20027;-72
2022/03/25 13:03:41;;;;;;;197.80;66.68;;;;;;;;;;4996221;28;20019;-72
2022/03/25 13:06:10;;;;;;;191.38;61.50;;;;;;;;;;4986896;28;20011;-72
2022/03/25 13:08:35;;;;;;;176.68;57.97;;;;;;;;;;4982812;28;20093;-74
2022/03/25 13:11:01;;;;;;;202.40;65.60;;;;;;;;;;4983273;28;20034;-74
2022/03/25 13:13:29;;;;;;;187.27;62.63;;;;;;;;;;4988487;28;20819;-74
2022/03/25 13:15:59;;;;;;;157.55;50.92;;;;;;;;;;4999555;28;20072;-72
2022/03/25 13:18:29;;;;;;;125.72;43.35;;;;;;;;;;4982222;28;20027;-72
2022/03/25 13:20:55;;;;;;;178.20;55.78;;;;;;;;;;4981150;28;20783;-72
2022/03/25 13:23:21;;;;;;;149.07;54.30;;;;;;;;;;4987658;28;20039;-72
2022/03/25 13:25:48;;;;;;;173.68;60.70;;;;;;;;;;4989862;28;20025;-72
2022/03/25 13:28:15;;;;;;;194.43;58.97;;;;;;;;;;4983457;28;20042;-72
2022/03/25 13:30:42;;;;;;;162.15;52.67;;;;;;;;;;4981753;28;20117;-72
2022/03/25 13:33:10;;;;;;;162.90;54.50;;;;;;;;;;4981748;28;20101;-72
2022/03/25 13:35:45;;;;;;;153.57;53.45;;;;;;;;;;4982218;28;20078;-72
2022/03/25 13:38:12;;;;;;;157.70;52.47;;;;;;;;;;4983723;28;20163;-73
2022/03/25 13:40:41;;;;;;;151.60;54.15;;;;;;;;;;4983279;28;20038;-74
2022/03/25 13:43:08;;;;;;;168.27;56.95;;;;;;;;;;4985257;28;20089;-74
2022/03/25 13:45:33;;;;;;;155.50;56.90;;;;;;;;;;4982382;28;21962;-75
2022/03/25 13:47:58;;;;;;;168.82;53.65;;;;;;;;;;4991079;28;20018;-76
2022/03/25 13:50:23;;;;;;;161.98;55.53;;;;;;;;;;4981387;28;20104;-73
2022/03/25 13:53:10;;;;;;;165.10;52.43;;;;;;;;;;4992709;28;20023;-72
2022/03/25 13:55:37;;;;;;;180.45;55.72;;;;;;;;;;4995626;28;20030;-73
2022/03/25 13:58:02;;;;;;;195.52;55.30;;;;;;;;;;4981716;28;20041;-74
2022/03/25 14:00:38;;;;;;;167.25;52.45;;;;;;;;;;4980269;28;20038;-73
2022/03/25 14:03:04;;;;;;;158.90;51.22;;;;;;;;;;4983687;28;20045;-73
2022/03/25 14:05:34;;;;;;;136.63;47.45;;;;;;;;;;4984433;28;20469;-72
2022/03/25 14:07:59;;;;;;;149.15;48.80;;;;;;;;;;4983513;28;20101;-73